createdAt,value
2019-04-20T00:02:13.720Z,10.60
2019-04-20T00:04:37.550Z,10.60
2019-04-20T00:07:08.089Z,10.50
2019-04-20T00:09:40.016Z,10.40
2019-04-20T00:12:18.912Z,10.40
2019-04-20T00:14:41.287Z,10.30
2019-04-20T00:17:11.625Z,10.30
2019-04-20T00:19:47.003Z,10.30
2019-04-20T00:22:18.389Z,10.30
2019-04-20T00:25:12.608Z,10.20
2019-04-20T00:27:59.534Z,10.20
2019-04-20T00:30:32.624Z,10.20
2019-04-20T00:32:55.543Z,10.10
2019-04-20T00:35:14.745Z,10.10
2019-04-20T00:37:46.746Z,10.00
2019-04-20T00:40:17.148Z,10.00
2019-04-20T00:42:51.747Z,9.90
2019-04-20T00:45:21.981Z,9.90
2019-04-20T00:47:56.260Z,9.90
2019-04-20T00:50:34.339Z,9.80
2019-04-20T00:53:04.696Z,9.70
2019-04-20T00:55:23.213Z,9.70
2019-04-20T00:57:59.696Z,9.70
2019-04-20T01:00:42.512Z,9.70
2019-04-20T01:03:14.224Z,9.60
2019-04-20T01:05:54.082Z,9.60
2019-04-20T01:08:08.194Z,9.70
2019-04-20T01:10:44.784Z,9.70
2019-04-20T01:13:13.987Z,9.70
2019-04-20T01:15:48.842Z,9.70
2019-04-20T01:18:13.856Z,9.70
2019-04-20T01:20:43.100Z,9.60
2019-04-20T01:23:17.221Z,9.50
2019-04-20T01:25:46.908Z,9.50
2019-04-20T01:28:29.918Z,9.50
2019-04-20T01:31:00.010Z,9.40
2019-04-20T01:33:34.309Z,9.40
2019-04-20T01:36:03.543Z,9.20
2019-04-20T01:38:34.266Z,9.10
2019-04-20T01:40:50.956Z,9.10
2019-04-20T01:43:20.601Z,9.10
2019-04-20T01:45:58.435Z,9.10
2019-04-20T01:48:27.438Z,9.00
2019-04-20T01:51:02.518Z,9.00
2019-04-20T01:53:46.511Z,8.90
2019-04-20T01:56:14.326Z,8.80
2019-04-20T01:58:59.787Z,8.70
2019-04-20T02:01:21.167Z,8.60
2019-04-20T02:03:50.821Z,8.50
2019-04-20T02:06:25.078Z,8.40
2019-04-20T02:09:00.335Z,8.30
2019-04-20T02:11:29.418Z,8.30
2019-04-20T02:14:00.271Z,8.20
2019-04-20T02:16:35.698Z,8.10
2019-04-20T02:19:14.820Z,8.00
2019-04-20T02:21:46.682Z,8.00
2019-04-20T02:24:04.659Z,7.90
2019-04-20T02:26:32.341Z,7.90
2019-04-20T02:29:24.618Z,7.80
2019-04-20T02:32:12.154Z,7.70
2019-04-20T02:34:59.812Z,7.70
2019-04-20T02:37:26.355Z,7.60
2019-04-20T02:39:57.912Z,7.30
2019-04-20T02:42:34.934Z,7.30
2019-04-20T02:45:12.740Z,7.20
2019-04-20T02:47:36.211Z,7.20
2019-04-20T02:50:03.214Z,7.00
2019-04-20T02:52:48.660Z,6.90
2019-04-20T02:55:02.115Z,6.80
2019-04-20T03:00:09.168Z,6.90
2019-04-20T03:02:20.604Z,6.80
2019-04-20T03:04:42.499Z,6.80
2019-04-20T03:07:19.148Z,6.70
2019-04-20T03:09:57.725Z,6.70
2019-04-20T03:12:33.524Z,6.60
2019-04-20T03:14:52.711Z,6.60
2019-04-20T03:17:37.272Z,6.50
2019-04-20T03:19:54.593Z,6.50
2019-04-20T03:22:39.482Z,6.40
2019-04-20T03:25:07.906Z,6.30
2019-04-20T03:27:36.553Z,6.20
2019-04-20T03:31:05.603Z,6.20
2019-04-20T03:33:12.058Z,6.20
2019-04-20T03:35:32.932Z,6.20
2019-04-20T03:38:05.227Z,6.20
2019-04-20T03:40:25.456Z,6.20
2019-04-20T03:42:44.659Z,6.20
2019-04-20T03:45:19.196Z,6.10
2019-04-20T03:47:57.061Z,6.10
2019-04-20T03:50:41.277Z,6.10
2019-04-20T03:53:12.910Z,6.10
2019-04-20T03:55:40.259Z,6.10
2019-04-20T03:58:18.618Z,6.20
2019-04-20T04:00:50.501Z,6.30
2019-04-20T04:03:36.459Z,6.30
2019-04-20T04:05:50.714Z,6.40
2019-04-20T04:08:21.779Z,6.40
2019-04-20T04:11:06.598Z,6.40
2019-04-20T04:13:16.860Z,6.40
2019-04-20T04:15:52.269Z,6.40
2019-04-20T04:18:28.046Z,6.50
2019-04-20T04:20:59.545Z,6.50
2019-04-20T04:23:40.906Z,6.50
2019-04-20T04:26:10.093Z,6.50
2019-04-20T04:28:41.168Z,6.60
2019-04-20T04:31:16.282Z,6.60
2019-04-20T04:36:15.382Z,6.80
2019-04-20T04:38:57.187Z,6.80
2019-04-20T04:41:25.631Z,6.90
2019-04-20T04:43:49.749Z,7.00
2019-04-20T04:46:04.246Z,7.10
2019-04-20T04:48:38.854Z,7.10
2019-04-20T04:51:12.922Z,7.20
2019-04-20T04:53:47.846Z,7.20
2019-04-20T04:56:11.592Z,7.30
2019-04-20T04:58:38.517Z,7.50
2019-04-20T05:01:14.803Z,7.60
2019-04-20T05:04:05.274Z,7.70
2019-04-20T05:06:29.192Z,7.80
2019-04-20T05:08:49.758Z,7.90
2019-04-20T05:11:15.218Z,8.10
2019-04-20T05:13:54.167Z,8.10
2019-04-20T05:16:38.527Z,8.20
2019-04-20T05:21:39.438Z,8.30
2019-04-20T05:24:26.873Z,8.30
2019-04-20T05:27:07.117Z,8.40
2019-04-20T05:29:22.519Z,8.50
2019-04-20T05:31:51.826Z,8.60
2019-04-20T05:34:38.500Z,8.70
2019-04-20T05:37:17.992Z,8.80
2019-04-20T05:39:38.508Z,9.00
2019-04-20T05:42:12.689Z,9.00
2019-04-20T05:44:46.025Z,9.10
2019-04-20T05:47:19.574Z,9.20
2019-04-20T05:49:45.318Z,9.30
2019-04-20T05:52:29.007Z,9.40
2019-04-20T05:54:50.931Z,9.60
2019-04-20T05:57:25.163Z,9.70
2019-04-20T05:59:55.766Z,9.90
2019-04-20T06:02:23.344Z,10.00
2019-04-20T06:05:11.428Z,10.10
2019-04-20T06:07:26.771Z,10.10
2019-04-20T06:09:59.794Z,10.40
2019-04-20T06:12:28.409Z,10.60
2019-04-20T06:15:00.152Z,10.80
2019-04-20T06:17:55.358Z,10.90
2019-04-20T06:20:33.339Z,11.10
2019-04-20T06:23:12.241Z,11.30
2019-04-20T06:25:54.251Z,11.50
2019-04-20T06:28:12.769Z,11.60
2019-04-20T06:30:45.286Z,11.90
2019-04-20T06:34:08.784Z,12.00
2019-04-20T06:36:33.591Z,12.10
2019-04-20T06:41:45.568Z,13.50
2019-04-20T06:44:08.644Z,14.40
2019-04-20T06:46:36.305Z,15.40
2019-04-20T06:49:11.840Z,16.30
2019-04-20T06:51:48.229Z,16.60
2019-04-20T06:54:17.332Z,17.40
2019-04-20T06:56:59.461Z,18.40
2019-04-20T06:59:32.183Z,18.80
2019-04-20T07:02:11.384Z,19.40
2019-04-20T07:04:43.269Z,20.20
2019-04-20T07:07:12.566Z,20.80
2019-04-20T07:12:03.135Z,21.30
2019-04-20T07:14:31.414Z,21.50
2019-04-20T07:17:17.944Z,21.90
2019-04-20T07:19:45.508Z,22.10
2019-04-20T07:22:33.692Z,22.60
2019-04-20T07:24:56.403Z,23.60
2019-04-20T07:27:19.345Z,23.70
2019-04-20T07:29:52.976Z,24.10
2019-04-20T07:32:14.170Z,23.70
2019-04-20T07:35:00.169Z,23.90
2019-04-20T07:40:06.773Z,23.00
2019-04-20T07:42:52.411Z,22.90
2019-04-20T07:45:12.276Z,23.00
2019-04-20T07:47:40.512Z,22.90
2019-04-20T07:50:05.132Z,23.40
2019-04-20T07:52:31.562Z,21.90
2019-04-20T07:55:28.618Z,22.50
2019-04-20T07:57:40.548Z,21.50
2019-04-20T08:00:15.046Z,21.30
2019-04-20T08:03:12.432Z,21.70
2019-04-20T08:05:22.002Z,21.70
2019-04-20T08:07:49.518Z,22.20
2019-04-20T08:10:12.251Z,22.40
2019-04-20T08:15:46.205Z,22.90
2019-04-20T08:18:02.408Z,22.40
2019-04-20T08:20:35.555Z,23.00
2019-04-20T08:23:04.976Z,23.20
2019-04-20T08:25:32.759Z,23.30
2019-04-20T08:28:01.377Z,21.90
2019-04-20T08:30:53.801Z,21.10
2019-04-20T08:33:28.472Z,20.80
2019-04-20T08:36:09.274Z,21.20
2019-04-20T08:38:58.316Z,21.60
2019-04-20T08:41:00.140Z,21.70
2019-04-20T08:43:47.002Z,21.40
2019-04-20T08:46:09.924Z,22.10
2019-04-20T08:48:41.813Z,22.50
2019-04-20T08:51:09.013Z,22.60
2019-04-20T08:53:41.812Z,23.00
2019-04-20T08:56:03.325Z,23.00
2019-04-20T08:58:22.600Z,23.60
2019-04-20T09:00:55.371Z,23.30
2019-04-20T09:03:29.096Z,22.90
2019-04-20T09:06:06.432Z,23.20
2019-04-20T09:08:36.679Z,23.60
2019-04-20T09:11:15.410Z,23.80
2019-04-20T09:13:38.906Z,24.30
2019-04-20T09:16:02.115Z,24.50
2019-04-20T09:18:46.634Z,24.10
2019-04-20T09:21:13.649Z,23.30
2019-04-20T09:23:57.899Z,22.70
2019-04-20T09:26:32.754Z,22.10
2019-04-20T09:28:59.117Z,22.20
2019-04-20T09:31:39.207Z,22.90
2019-04-20T09:34:15.422Z,23.50
2019-04-20T09:36:46.127Z,24.30
2019-04-20T09:39:21.276Z,25.10
2019-04-20T09:42:00.884Z,25.30
2019-04-20T09:44:33.634Z,23.90
2019-04-20T09:46:59.819Z,23.70
2019-04-20T09:49:38.730Z,24.00
2019-04-20T09:52:13.431Z,24.10
2019-04-20T09:54:48.215Z,24.60
2019-04-20T09:57:22.726Z,25.40
2019-04-20T09:59:52.637Z,25.40
2019-04-20T10:02:13.183Z,25.40
2019-04-20T10:04:36.020Z,25.30
2019-04-20T10:07:12.915Z,25.40
2019-04-20T10:09:43.012Z,24.90
2019-04-20T10:12:09.233Z,25.00
2019-04-20T10:14:40.593Z,25.60
2019-04-20T10:17:11.877Z,25.70
2019-04-20T10:19:43.018Z,25.90
2019-04-20T10:22:13.221Z,25.70
2019-04-20T10:24:45.800Z,25.80
2019-04-20T10:27:14.616Z,25.30
2019-04-20T10:29:44.208Z,24.80
2019-04-20T10:32:15.807Z,23.20
2019-04-20T10:34:44.836Z,22.80
2019-04-20T10:37:19.766Z,22.90
2019-04-20T10:39:49.975Z,23.20
2019-04-20T10:42:20.377Z,22.90
2019-04-20T10:44:53.981Z,22.60
2019-04-20T10:47:23.081Z,22.90
2019-04-20T10:49:53.285Z,23.50
2019-04-20T10:52:23.768Z,23.90
2019-04-20T10:54:54.359Z,23.40
2019-04-20T10:57:24.122Z,23.00
2019-04-20T10:59:53.423Z,23.00
2019-04-20T11:02:23.619Z,22.90
2019-04-20T11:04:53.219Z,22.90
2019-04-20T11:07:22.863Z,22.70
2019-04-20T11:10:05.291Z,22.80
2019-04-20T11:12:26.262Z,22.90
2019-04-20T11:14:58.565Z,23.20
2019-04-20T11:17:29.956Z,23.00
2019-04-20T11:19:59.361Z,22.90
2019-04-20T11:22:28.871Z,22.60
2019-04-20T11:24:58.536Z,23.10
2019-04-20T11:27:28.276Z,23.50
2019-04-20T11:29:58.242Z,23.40
2019-04-20T11:32:28.355Z,23.10
2019-04-20T11:35:03.007Z,23.10
2019-04-20T11:37:31.010Z,22.80
2019-04-20T11:40:01.506Z,22.40
2019-04-20T11:42:37.419Z,21.90
2019-04-20T11:45:10.879Z,22.00
2019-04-20T11:47:40.618Z,21.90
2019-04-20T11:50:09.957Z,22.10
2019-04-20T11:52:44.170Z,22.10
2019-04-20T11:55:12.536Z,22.20
2019-04-20T11:57:43.124Z,22.00
2019-04-20T12:00:17.290Z,21.80
2019-04-20T12:03:16.089Z,21.60
2019-04-20T12:05:44.488Z,21.80
2019-04-20T12:08:11.191Z,21.90
2019-04-20T12:10:44.681Z,22.30
2019-04-20T12:13:14.579Z,22.40
2019-04-20T12:15:43.487Z,22.40
2019-04-20T12:18:13.794Z,22.40
2019-04-20T12:20:44.879Z,22.30
2019-04-20T12:23:15.993Z,22.40
2019-04-20T12:25:46.268Z,22.30
2019-04-20T12:28:15.827Z,22.10
2019-04-20T12:30:45.998Z,22.20
2019-04-20T12:33:15.715Z,22.80
2019-04-20T12:35:46.287Z,23.00
2019-04-20T12:38:17.068Z,22.50
2019-04-20T12:40:48.279Z,22.20
2019-04-20T12:43:19.127Z,22.20
2019-04-20T12:45:49.692Z,22.20
2019-04-20T12:48:19.770Z,21.70
2019-04-20T12:50:49.932Z,21.20
2019-04-20T12:53:20.422Z,21.10
2019-04-20T12:55:54.834Z,21.10
2019-04-20T12:58:24.780Z,21.30
2019-04-20T13:00:56.349Z,21.30
2019-04-20T13:03:27.668Z,21.30
2019-04-20T13:05:58.172Z,21.20
2019-04-20T13:08:33.976Z,21.20
2019-04-20T13:11:02.440Z,21.50
2019-04-20T13:13:41.537Z,21.60
2019-04-20T13:16:14.239Z,21.50
2019-04-20T13:18:48.358Z,21.40
2019-04-20T13:21:18.897Z,21.50
2019-04-20T13:23:49.502Z,21.60
2019-04-20T13:26:19.361Z,21.40
2019-04-20T13:28:48.937Z,21.30
2019-04-20T13:31:19.773Z,21.50
2019-04-20T13:33:49.584Z,21.70
2019-04-20T13:36:19.952Z,21.70
2019-04-20T13:38:50.042Z,21.70
2019-04-20T13:41:19.930Z,21.70
2019-04-20T13:43:50.282Z,21.60
2019-04-20T13:46:20.802Z,21.70
2019-04-20T13:48:51.278Z,21.60
2019-04-20T13:51:21.054Z,21.40
2019-04-20T13:53:51.047Z,21.30
2019-04-20T13:56:23.766Z,21.10
2019-04-20T13:58:56.173Z,21.10
2019-04-20T14:01:45.079Z,21.10
2019-04-20T14:04:20.587Z,21.20
2019-04-20T14:06:51.528Z,21.00
2019-04-20T14:09:21.383Z,21.30
2019-04-20T14:11:51.765Z,21.40
2019-04-20T14:14:21.495Z,21.20
2019-04-20T14:16:51.005Z,21.20
2019-04-20T14:19:21.057Z,21.20
2019-04-20T14:21:52.173Z,21.20
2019-04-20T14:24:22.115Z,21.30
2019-04-20T14:26:52.844Z,21.40
2019-04-20T14:29:23.105Z,21.30
2019-04-20T14:31:53.682Z,21.30
2019-04-20T14:34:24.499Z,21.30
2019-04-20T14:36:55.130Z,21.40
2019-04-20T14:39:30.229Z,21.50
2019-04-20T14:42:00.458Z,21.50
2019-04-20T14:44:29.939Z,21.50
2019-04-20T14:47:00.073Z,21.30
2019-04-20T14:49:30.512Z,21.20
2019-04-20T14:52:01.564Z,21.20
2019-04-20T14:54:31.829Z,21.20
2019-04-20T14:57:05.580Z,21.20
2019-04-20T14:59:39.582Z,21.40
2019-04-20T15:02:10.567Z,21.30
2019-04-20T15:04:41.222Z,21.30
2019-04-20T15:07:11.056Z,21.30
2019-04-20T15:09:40.785Z,21.50
2019-04-20T15:12:10.938Z,21.60
2019-04-20T15:14:44.784Z,21.50
2019-04-20T15:17:17.137Z,21.20
2019-04-20T15:19:51.879Z,21.00
2019-04-20T15:22:36.422Z,21.00
2019-04-20T15:25:07.644Z,21.10
2019-04-20T15:27:42.507Z,20.90
2019-04-20T15:30:10.471Z,20.70
2019-04-20T15:32:40.930Z,20.50
2019-04-20T15:35:11.153Z,20.50
2019-04-20T15:37:42.395Z,20.30
2019-04-20T15:40:13.229Z,20.20
2019-04-20T15:42:51.622Z,20.30
2019-04-20T15:45:15.569Z,20.20
2019-04-20T15:47:45.898Z,20.10
2019-04-20T15:50:16.081Z,20.10
2019-04-20T15:52:50.864Z,20.00
2019-04-20T15:55:21.670Z,20.00
2019-04-20T15:57:48.223Z,19.90
2019-04-20T16:00:20.296Z,19.90
2019-04-20T16:03:09.533Z,19.50
2019-04-20T16:05:47.173Z,19.70
2019-04-20T16:08:21.562Z,19.70
2019-04-20T16:10:52.973Z,19.50
2019-04-20T16:13:30.043Z,19.50
2019-04-20T16:15:53.985Z,19.30
2019-04-20T16:18:25.114Z,19.20
2019-04-20T16:21:05.230Z,19.20
2019-04-20T16:23:30.418Z,19.20
2019-04-20T16:26:07.874Z,19.20
2019-04-20T16:28:37.611Z,19.20
2019-04-20T16:31:10.028Z,19.10
2019-04-20T16:33:38.863Z,19.00
2019-04-20T16:36:10.246Z,18.90
2019-04-20T16:38:41.738Z,18.70
2019-04-20T16:41:12.332Z,18.70
2019-04-20T16:43:44.727Z,18.80
2019-04-20T16:46:16.846Z,18.70
2019-04-20T16:48:44.549Z,18.60
2019-04-20T16:51:13.844Z,18.60
2019-04-20T16:53:43.926Z,18.40
2019-04-20T16:56:15.672Z,18.30
2019-04-20T16:58:47.747Z,18.30
2019-04-20T17:01:15.463Z,18.20
2019-04-20T17:03:54.615Z,18.10
2019-04-20T17:06:15.963Z,18.10
2019-04-20T17:08:47.770Z,18.00
2019-04-20T17:11:18.303Z,17.80
2019-04-20T17:13:50.042Z,17.70
2019-04-20T17:16:19.701Z,17.70
2019-04-20T17:18:50.397Z,17.50
2019-04-20T17:21:23.512Z,17.40
2019-04-20T17:23:51.316Z,17.30
2019-04-20T17:26:27.156Z,17.20
2019-04-20T17:29:10.736Z,17.10
2019-04-20T17:31:43.204Z,17.00
2019-04-20T17:34:30.161Z,16.90
2019-04-20T17:36:44.474Z,16.80
2019-04-20T17:39:25.840Z,16.70
2019-04-20T17:42:03.457Z,16.60
2019-04-20T17:44:34.405Z,16.50
2019-04-20T17:47:00.631Z,16.30
2019-04-20T17:49:35.517Z,16.20
2019-04-20T17:52:21.517Z,16.10
2019-04-20T17:54:31.433Z,16.00
2019-04-20T17:57:02.338Z,15.90
2019-04-20T17:59:34.547Z,15.80
2019-04-20T18:02:17.522Z,15.70
2019-04-20T18:05:08.213Z,15.60
2019-04-20T18:07:37.928Z,15.60
2019-04-20T18:10:06.749Z,15.50
2019-04-20T18:12:27.034Z,15.50
2019-04-20T18:15:10.231Z,15.40
2019-04-20T18:17:56.499Z,15.40
2019-04-20T18:20:21.454Z,15.40
2019-04-20T18:22:56.551Z,15.30
2019-04-20T18:25:50.875Z,15.30
2019-04-20T18:28:11.097Z,15.30
2019-04-20T18:30:48.036Z,15.30
2019-04-20T18:33:11.527Z,15.20
2019-04-20T18:35:46.051Z,15.20
2019-04-20T18:38:15.242Z,15.20
2019-04-20T18:40:53.373Z,15.20
2019-04-20T18:43:21.496Z,15.10
2019-04-20T18:46:03.887Z,15.10
2019-04-20T18:48:40.043Z,15.00
2019-04-20T18:50:49.049Z,14.90
2019-04-20T18:53:28.686Z,14.80
2019-04-20T18:55:55.512Z,14.70
2019-04-20T18:58:22.834Z,14.70
2019-04-20T19:00:54.217Z,14.60
2019-04-20T19:03:32.293Z,14.60
2019-04-20T19:05:55.849Z,14.60
2019-04-20T19:08:35.004Z,14.60
2019-04-20T19:11:04.186Z,14.60
2019-04-20T19:13:47.768Z,14.60
2019-04-20T19:16:30.680Z,14.50
2019-04-20T19:19:06.677Z,14.40
2019-04-20T19:21:27.043Z,14.30
2019-04-20T19:24:05.592Z,14.30
2019-04-20T19:26:28.568Z,14.30
2019-04-20T19:29:12.207Z,14.20
2019-04-20T19:31:45.829Z,14.20
2019-04-20T19:34:18.851Z,14.20
2019-04-20T19:36:38.926Z,14.10
2019-04-20T19:39:23.740Z,14.10
2019-04-20T19:41:49.021Z,14.00
2019-04-20T19:44:18.681Z,14.00
2019-04-20T19:47:01.310Z,13.90
2019-04-20T19:49:23.017Z,13.80
2019-04-20T19:52:14.921Z,13.70
2019-04-20T19:54:34.507Z,13.60
2019-04-20T19:56:58.533Z,13.60
2019-04-20T19:59:23.600Z,13.60
2019-04-20T20:01:45.818Z,13.50
2019-04-20T20:04:15.643Z,13.40
2019-04-20T20:06:51.816Z,13.30
2019-04-20T20:09:18.201Z,13.30
2019-04-20T20:11:49.968Z,13.20
2019-04-20T20:14:31.950Z,13.30
2019-04-20T20:17:08.482Z,13.20
2019-04-20T20:19:39.661Z,13.20
2019-04-20T20:22:07.907Z,13.10
2019-04-20T20:24:25.141Z,13.10
2019-04-20T20:27:00.331Z,13.10
2019-04-20T20:29:34.167Z,13.10
2019-04-20T20:32:11.060Z,13.10
2019-04-20T20:34:36.394Z,13.00
2019-04-20T20:37:04.283Z,13.00
2019-04-20T20:39:34.282Z,13.00
2019-04-20T20:42:15.140Z,12.90
2019-04-20T20:44:41.118Z,12.90
2019-04-20T20:47:35.351Z,12.90
2019-04-20T20:50:03.247Z,12.90
2019-04-20T20:52:26.202Z,12.80
2019-04-20T20:54:49.553Z,12.80
2019-04-20T20:57:13.208Z,12.80
2019-04-20T20:59:49.416Z,12.80
2019-04-20T21:02:17.996Z,12.70
2019-04-20T21:04:41.844Z,12.60
2019-04-20T21:07:11.143Z,12.60
2019-04-20T21:09:41.676Z,12.60
2019-04-20T21:12:15.918Z,12.60
2019-04-20T21:14:44.254Z,12.60
2019-04-20T21:17:18.284Z,12.60
2019-04-20T21:19:59.432Z,12.60
2019-04-20T21:22:27.277Z,12.60
2019-04-20T21:24:51.108Z,12.60
2019-04-20T21:27:22.117Z,12.50
2019-04-20T21:29:54.706Z,12.50
2019-04-20T21:32:23.713Z,12.50
2019-04-20T21:34:58.501Z,12.50
2019-04-20T21:37:27.112Z,12.50
2019-04-20T21:39:59.723Z,12.50
2019-04-20T21:42:30.099Z,12.50
2019-04-20T21:45:08.118Z,12.40
2019-04-20T21:47:34.195Z,12.30
2019-04-20T21:50:17.066Z,12.30
2019-04-20T21:52:39.227Z,12.20
2019-04-20T21:55:05.887Z,12.20
2019-04-20T21:57:40.714Z,12.10
2019-04-20T22:00:21.682Z,12.00
2019-04-20T22:02:48.393Z,12.00
2019-04-20T22:05:13.586Z,12.00
2019-04-20T22:07:44.257Z,11.90
2019-04-20T22:10:20.196Z,11.90
2019-04-20T22:12:52.645Z,11.90
2019-04-20T22:15:24.731Z,11.80
2019-04-20T22:17:48.599Z,11.80
2019-04-20T22:20:28.346Z,11.80
2019-04-20T22:23:02.653Z,11.80
2019-04-20T22:25:40.802Z,11.80
2019-04-20T22:27:51.724Z,11.80
2019-04-20T22:30:22.082Z,11.80
2019-04-20T22:32:55.269Z,11.80
2019-04-20T22:35:26.144Z,11.70
2019-04-20T22:38:01.138Z,11.60
2019-04-20T22:40:32.149Z,11.60
2019-04-20T22:43:00.590Z,11.60
2019-04-20T22:45:33.965Z,11.60
2019-04-20T22:48:07.082Z,11.50
2019-04-20T22:50:45.996Z,11.50
2019-04-20T22:53:18.937Z,11.50
2019-04-20T22:56:01.482Z,11.40
2019-04-20T22:58:23.398Z,11.40
2019-04-20T23:00:48.699Z,11.30
2019-04-20T23:03:10.166Z,11.40
2019-04-20T23:05:40.598Z,11.40
2019-04-20T23:08:10.950Z,11.40
2019-04-20T23:10:44.799Z,11.40
2019-04-20T23:13:11.605Z,11.40
2019-04-20T23:15:43.291Z,11.30
2019-04-20T23:18:13.861Z,11.30
2019-04-20T23:20:44.108Z,11.20
2019-04-20T23:23:18.162Z,11.10
2019-04-20T23:25:45.151Z,11.10
2019-04-20T23:28:18.051Z,11.00
2019-04-20T23:30:47.346Z,10.90
2019-04-20T23:33:18.115Z,11.00
2019-04-20T23:35:54.163Z,10.90
2019-04-20T23:38:22.547Z,10.90
2019-04-20T23:40:50.067Z,10.80
2019-04-20T23:43:28.174Z,10.70
2019-04-20T23:46:17.029Z,10.80
2019-04-20T23:48:56.175Z,10.70
2019-04-20T23:51:49.956Z,10.70
2019-04-20T23:54:07.243Z,10.60
2019-04-20T23:56:28.367Z,10.50
2019-04-20T23:58:59.691Z,10.40
